Time;durP1;ratioP1;P1;durP2;ratioP2;P2;SDS_P1;SDS_P2;PMS_P1;PMS_P2;Temp;Humidity;BMP_temperature;BMP_pressure;BME280_temperature;BME280_humidity;BME280_pressure;Samples;Min_cycle;Max_cycle;Signal;HPM_P1;HPM_P2
2021/03/31 00:01:52;;;;;;;2.85;2.10;;;21.90;57.30;;;;;;5070718;28;20410;-37
2021/03/31 00:04:18;;;;;;;1.90;1.80;;;21.90;57.40;;;;;;5071228;28;20044;-37
2021/03/31 00:06:43;;;;;;;2.40;2.22;;;21.90;57.30;;;;;;5070968;28;20036;-38
2021/03/31 00:09:09;;;;;;;3.08;2.38;;;21.90;57.30;;;;;;5069945;28;20059;-37
2021/03/31 00:11:34;;;;;;;2.03;1.90;;;21.90;57.30;;;;;;5070741;28;20028;-39
2021/03/31 00:14:00;;;;;;;2.25;2.15;;;21.90;57.30;;;;;;5071062;28;20033;-34
2021/03/31 00:16:26;;;;;;;2.00;1.90;;;21.90;57.40;;;;;;5070900;28;20045;-35
2021/03/31 00:18:51;;;;;;;2.17;2.08;;;21.90;57.30;;;;;;5072784;28;20110;-38
2021/03/31 00:21:17;;;;;;;2.25;2.15;;;21.80;57.30;;;;;;5074462;28;20078;-36
2021/03/31 00:23:43;;;;;;;2.40;2.30;;;21.80;57.40;;;;;;5074023;28;20039;-38
2021/03/31 00:26:08;;;;;;;2.30;2.20;;;21.80;57.40;;;;;;5074700;28;20017;-38
2021/03/31 00:28:34;;;;;;;2.83;2.50;;;21.80;57.40;;;;;;5072179;28;20051;-36
2021/03/31 00:30:59;;;;;;;2.35;2.20;;;21.80;57.40;;;;;;5074878;28;20046;-42
2021/03/31 00:33:25;;;;;;;2.67;2.55;;;21.80;57.30;;;;;;5074854;28;20444;-37
2021/03/31 00:35:51;;;;;;;2.13;1.90;;;21.80;57.30;;;;;;5074267;28;20105;-38
2021/03/31 00:38:16;;;;;;;3.03;2.22;;;21.80;57.40;;;;;;5074546;28;20386;-38
2021/03/31 00:40:49;;;;;;;2.72;2.53;;;21.80;57.30;;;;;;5074090;28;20051;-37
2021/03/31 00:43:15;;;;;;;2.50;2.17;;;21.80;57.30;;;;;;5073820;28;20102;-37
2021/03/31 00:45:41;;;;;;;2.63;2.42;;;21.70;57.40;;;;;;5073393;28;20056;-38
2021/03/31 00:48:08;;;;;;;2.33;2.20;;;21.80;57.30;;;;;;5073933;28;20047;-38
2021/03/31 00:50:33;;;;;;;2.03;1.92;;;21.80;57.30;;;;;;5073277;28;20564;-38
2021/03/31 00:53:00;;;;;;;2.17;2.05;;;21.80;57.30;;;;;;5073916;28;20052;-38
2021/03/31 00:55:27;;;;;;;2.35;2.15;;;21.80;57.40;;;;;;5074077;28;20024;-38
2021/03/31 00:57:53;;;;;;;2.25;2.15;;;21.80;57.40;;;;;;5074353;28;20075;-38
2021/03/31 01:00:19;;;;;;;2.53;2.42;;;21.80;57.30;;;;;;5047570;28;20060;-38
2021/03/31 01:02:45;;;;;;;2.38;2.28;;;21.70;57.40;;;;;;5067876;28;20064;-37
2021/03/31 01:05:22;;;;;;;2.35;2.22;;;21.70;57.30;;;;;;5073063;28;20053;-37
2021/03/31 01:07:48;;;;;;;2.22;2.10;;;21.70;57.30;;;;;;5058442;28;20658;-39
2021/03/31 01:10:15;;;;;;;2.35;2.22;;;21.70;57.30;;;;;;5071775;28;20032;-38
2021/03/31 01:13:02;;;;;;;2.70;2.30;;;21.70;57.40;;;;;;5072816;28;20463;-38
2021/03/31 01:16:06;;;;;;;2.28;2.17;;;21.70;57.50;;;;;;5072092;28;20039;-38
2021/03/31 01:18:51;;;;;;;2.22;2.03;;;21.80;57.50;;;;;;5071192;28;20032;-37
2021/03/31 01:21:34;;;;;;;;;;;21.70;57.50;;;;;;5074003;28;20040;-37
2021/03/31 01:24:19;;;;;;;2.03;1.90;;;21.70;57.50;;;;;;5067591;28;19959;-37
2021/03/31 01:26:52;;;;;;;2.30;2.10;;;21.70;57.40;;;;;;5067520;28;20048;-37
2021/03/31 01:29:42;;;;;;;2.30;2.10;;;21.70;57.50;;;;;;5100146;28;20037;-38
2021/03/31 01:32:24;;;;;;;2.38;2.28;;;21.70;57.60;;;;;;5072124;28;20131;-37
2021/03/31 01:35:10;;;;;;;2.15;2.05;;;21.70;57.50;;;;;;5073272;28;20036;-37
2021/03/31 01:37:39;;;;;;;2.08;1.95;;;21.60;57.50;;;;;;5101397;28;20419;-39
2021/03/31 01:40:06;;;;;;;2.60;2.40;;;21.60;57.30;;;;;;5072121;28;20020;-38
2021/03/31 01:42:33;;;;;;;2.70;2.50;;;21.60;57.60;;;;;;5072938;28;20071;-38
2021/03/31 01:45:00;;;;;;;2.60;2.40;;;21.60;57.30;;;;;;5088556;28;20036;-39
2021/03/31 01:47:25;;;;;;;3.13;2.00;;;21.60;57.40;;;;;;5100234;28;20498;-38
2021/03/31 01:49:51;;;;;;;2.67;2.47;;;21.60;57.30;;;;;;5071494;28;20024;-38
2021/03/31 01:52:17;;;;;;;2.17;2.08;;;21.60;57.50;;;;;;5054150;28;20099;-39
2021/03/31 01:54:44;;;;;;;2.80;2.60;;;21.60;57.50;;;;;;5072156;28;20071;-40
2021/03/31 01:57:10;;;;;;;2.22;2.05;;;21.60;57.30;;;;;;5088487;28;20119;-37
2021/03/31 01:59:36;;;;;;;2.58;2.38;;;21.50;57.10;;;;;;5105612;28;20117;-38
2021/03/31 02:02:02;;;;;;;2.15;1.90;;;21.60;57.30;;;;;;5072588;28;20112;-37
2021/03/31 02:04:27;;;;;;;2.40;2.30;;;21.60;57.20;;;;;;5073031;28;20051;-37
2021/03/31 02:06:54;;;;;;;2.20;2.10;;;21.60;57.10;;;;;;5072458;28;20555;-38
2021/03/31 02:09:19;;;;;;;2.55;2.45;;;21.50;57.10;;;;;;5069345;28;20050;-38
2021/03/31 02:11:45;;;;;;;2.55;2.40;;;21.50;57.20;;;;;;5072222;28;20020;-38
2021/03/31 02:14:16;;;;;;;2.60;2.40;;;21.50;57.00;;;;;;5070821;28;20025;-38
2021/03/31 02:16:43;;;;;;;2.53;2.42;;;21.50;57.00;;;;;;5087083;28;20066;-38
2021/03/31 02:19:14;;;;;;;2.80;2.60;;;21.50;57.20;;;;;;5056708;28;20028;-40
2021/03/31 02:21:41;;;;;;;2.55;2.38;;;21.50;57.20;;;;;;5069709;28;20078;-38
2021/03/31 02:24:07;;;;;;;2.92;2.72;;;21.50;57.00;;;;;;5054348;28;20048;-37
2021/03/31 02:26:32;;;;;;;2.70;2.50;;;21.50;57.10;;;;;;5104707;28;20405;-37
2021/03/31 02:28:58;;;;;;;2.60;2.50;;;21.50;57.10;;;;;;5072466;28;20025;-38
2021/03/31 02:31:23;;;;;;;2.33;2.22;;;21.50;57.10;;;;;;5072273;28;20020;-38
2021/03/31 02:33:49;;;;;;;2.20;2.10;;;21.50;57.10;;;;;;5071335;28;20032;-37
2021/03/31 02:36:15;;;;;;;2.45;2.33;;;21.50;57.00;;;;;;5087635;28;20021;-38
2021/03/31 02:38:43;;;;;;;2.92;2.30;;;21.50;57.00;;;;;;5071860;28;20065;-37
2021/03/31 02:41:10;;;;;;;2.65;2.45;;;21.40;57.20;;;;;;5087137;28;20406;-40
2021/03/31 02:43:37;;;;;;;2.17;2.08;;;21.40;57.20;;;;;;5054070;28;20020;-38
2021/03/31 02:46:02;;;;;;;2.28;2.17;;;21.40;57.20;;;;;;5053958;28;20037;-37
2021/03/31 02:48:28;;;;;;;2.53;2.38;;;21.40;57.10;;;;;;5071209;28;20094;-38
2021/03/31 02:50:57;;;;;;;2.70;2.50;;;21.40;57.10;;;;;;5086192;28;20024;-38
2021/03/31 02:53:22;;;;;;;2.10;2.00;;;21.40;57.00;;;;;;5078963;28;20032;-37
2021/03/31 02:55:48;;;;;;;2.20;2.10;;;21.40;57.30;;;;;;5070130;28;20029;-37
2021/03/31 02:58:13;;;;;;;2.45;2.25;;;21.40;57.00;;;;;;5054218;28;20056;-38
2021/03/31 03:00:39;;;;;;;2.55;2.40;;;21.40;57.00;;;;;;5068851;28;20027;-38
2021/03/31 03:03:05;;;;;;;2.50;2.40;;;21.40;57.00;;;;;;5071470;28;20036;-37
2021/03/31 03:05:30;;;;;;;2.65;2.45;;;21.40;57.00;;;;;;5070342;28;20038;-38
2021/03/31 03:07:57;;;;;;;2.03;1.92;;;21.40;57.00;;;;;;5103244;28;20464;-38
2021/03/31 03:10:22;;;;;;;2.20;2.10;;;21.40;57.00;;;;;;5103816;28;20024;-38
2021/03/31 03:12:53;;;;;;;2.25;2.15;;;21.30;57.10;;;;;;5071839;28;20090;-40
2021/03/31 03:15:19;;;;;;;2.47;2.28;;;21.30;57.10;;;;;;5070877;28;20494;-37
2021/03/31 03:17:46;;;;;;;3.90;2.40;;;21.40;57.10;;;;;;5069947;28;20116;-38
2021/03/31 03:20:13;;;;;;;2.17;2.08;;;21.30;57.00;;;;;;5071034;28;20044;-38
2021/03/31 03:22:40;;;;;;;2.45;2.25;;;21.30;57.00;;;;;;5069962;28;20024;-38
2021/03/31 03:25:08;;;;;;;2.25;2.03;;;21.30;57.20;;;;;;5071541;28;20452;-38
2021/03/31 03:27:34;;;;;;;2.30;2.10;;;21.30;56.90;;;;;;5071373;28;20426;-38
2021/03/31 03:30:00;;;;;;;2.83;2.35;;;21.40;57.00;;;;;;5070320;28;20119;-37
2021/03/31 03:32:25;;;;;;;2.40;2.20;;;21.30;56.90;;;;;;5086359;28;20404;-37
2021/03/31 03:34:51;;;;;;;2.05;1.95;;;21.30;57.00;;;;;;5103046;28;20025;-37
2021/03/31 03:37:18;;;;;;;2.45;2.20;;;21.40;56.80;;;;;;5053054;28;20032;-37
2021/03/31 03:39:44;;;;;;;2.00;1.90;;;21.30;57.10;;;;;;5086904;28;20024;-37
2021/03/31 03:42:09;;;;;;;2.20;2.00;;;21.30;56.90;;;;;;5071155;28;20039;-37
2021/03/31 03:44:35;;;;;;;2.47;2.25;;;21.40;56.90;;;;;;5070238;28;20031;-37
2021/03/31 03:47:00;;;;;;;2.08;1.98;;;21.40;56.70;;;;;;5103607;28;20032;-37
2021/03/31 03:49:26;;;;;;;2.50;2.30;;;21.40;56.80;;;;;;5079612;28;20036;-36
2021/03/31 03:51:52;;;;;;;2.58;2.38;;;21.40;56.90;;;;;;5073838;28;20051;-37
2021/03/31 03:54:17;;;;;;;2.30;2.20;;;21.30;56.50;;;;;;5054138;28;20031;-37
2021/03/31 03:56:49;;;;;;;1.85;1.75;;;21.30;56.60;;;;;;5091039;28;20028;-37
2021/03/31 03:59:22;;;;;;;2.45;2.25;;;21.40;56.80;;;;;;5075327;28;20031;-37
2021/03/31 04:01:48;;;;;;;2.60;2.08;;;21.40;56.70;;;;;;5075348;28;20028;-37
2021/03/31 04:04:14;;;;;;;2.55;2.17;;;21.40;56.70;;;;;;5075042;28;20039;-37
2021/03/31 04:06:39;;;;;;;2.30;2.20;;;21.40;56.50;;;;;;5075418;28;20406;-36
2021/03/31 04:09:05;;;;;;;2.50;2.30;;;21.40;56.40;;;;;;5075077;28;20056;-34
2021/03/31 04:11:31;;;;;;;2.35;2.25;;;21.40;56.50;;;;;;5074403;28;20031;-38
2021/03/31 04:13:58;;;;;;;2.30;2.20;;;21.40;56.60;;;;;;5057003;28;20520;-38
2021/03/31 04:16:23;;;;;;;2.00;1.83;;;21.30;56.90;;;;;;5073863;28;20040;-37
2021/03/31 04:18:49;;;;;;;2.83;2.20;;;21.10;57.10;;;;;;5075386;28;20051;-40
2021/03/31 04:21:14;;;;;;;2.20;2.10;;;21.20;57.30;;;;;;5090361;28;20112;-37
2021/03/31 04:23:40;;;;;;;2.13;2.00;;;21.20;57.30;;;;;;5073639;28;20066;-37
2021/03/31 04:26:06;;;;;;;3.40;2.60;;;21.20;57.40;;;;;;5074396;28;20481;-38
2021/03/31 04:28:31;;;;;;;2.05;1.95;;;21.10;58.00;;;;;;5055995;28;20115;-38
2021/03/31 04:30:58;;;;;;;2.40;2.30;;;21.20;57.90;;;;;;5089479;28;20425;-39
2021/03/31 04:33:24;;;;;;;2.20;2.10;;;21.30;57.90;;;;;;5103390;28;20032;-38
2021/03/31 04:35:54;;;;;;;1.95;1.85;;;21.20;57.60;;;;;;5068809;28;20498;-36
2021/03/31 04:38:19;;;;;;;2.20;2.10;;;21.10;57.90;;;;;;5071009;28;20029;-37
2021/03/31 04:40:58;;;;;;;2.22;2.10;;;21.10;57.50;;;;;;5070843;28;20029;-38
2021/03/31 04:43:26;;;;;;;2.22;2.13;;;21.10;57.90;;;;;;5071926;28;20066;-39
2021/03/31 04:45:58;;;;;;;2.40;2.20;;;21.00;58.40;;;;;;5068210;28;20025;-39
2021/03/31 04:48:24;;;;;;;2.65;2.10;;;20.90;58.20;;;;;;5071629;28;20028;-38
2021/03/31 04:50:49;;;;;;;1.92;1.83;;;20.90;58.30;;;;;;5071065;28;20056;-39
2021/03/31 04:53:15;;;;;;;2.00;1.80;;;20.90;58.20;;;;;;5068050;28;20033;-39
2021/03/31 04:55:40;;;;;;;2.33;2.22;;;20.90;58.50;;;;;;5071253;28;20505;-38
2021/03/31 04:58:06;;;;;;;2.40;1.95;;;20.90;58.90;;;;;;5071150;28;20089;-40
2021/03/31 05:00:31;;;;;;;2.35;2.15;;;20.90;58.70;;;;;;5066678;28;20525;-38
2021/03/31 05:02:57;;;;;;;2.50;2.30;;;20.90;58.50;;;;;;5071358;28;20139;-39
2021/03/31 05:05:23;;;;;;;2.13;1.75;;;21.00;58.50;;;;;;5070455;28;20495;-39
2021/03/31 05:07:48;;;;;;;2.10;2.00;;;21.00;58.10;;;;;;5070806;28;20040;-40
2021/03/31 05:10:14;;;;;;;2.20;2.10;;;21.00;58.10;;;;;;5072433;28;20021;-39
2021/03/31 05:12:39;;;;;;;1.80;1.70;;;21.10;58.60;;;;;;5071084;28;20028;-38
2021/03/31 05:15:06;;;;;;;2.20;2.10;;;21.10;58.40;;;;;;5068886;28;20028;-39
2021/03/31 05:17:31;;;;;;;1.85;1.75;;;21.10;58.20;;;;;;5069978;28;20063;-38
2021/03/31 05:19:57;;;;;;;2.20;2.10;;;21.10;58.80;;;;;;5068145;28;20112;-39
2021/03/31 05:22:23;;;;;;;1.80;1.70;;;21.20;59.10;;;;;;5061426;28;20024;-44
2021/03/31 05:24:48;;;;;;;2.17;1.98;;;21.10;58.90;;;;;;5062672;28;20037;-45
2021/03/31 05:27:14;;;;;;;2.97;1.80;;;21.10;58.60;;;;;;5059752;28;20047;-44
2021/03/31 05:29:40;;;;;;;2.72;1.92;;;21.10;58.60;;;;;;5064242;28;20044;-44
2021/03/31 05:32:06;;;;;;;2.70;2.28;;;21.10;58.40;;;;;;5061871;28;20028;-44
2021/03/31 05:34:32;;;;;;;1.90;1.80;;;21.20;58.10;;;;;;5066777;28;20498;-44
2021/03/31 05:36:57;;;;;;;2.33;1.77;;;21.20;58.10;;;;;;5071129;28;20019;-48
2021/03/31 05:39:23;;;;;;;1.90;1.80;;;21.20;58.10;;;;;;5064427;28;20032;-44
2021/03/31 05:41:49;;;;;;;2.42;1.83;;;21.20;57.90;;;;;;5064007;28;20029;-43
2021/03/31 05:44:15;;;;;;;3.50;1.65;;;21.30;57.90;;;;;;5061103;28;20028;-45
2021/03/31 05:46:41;;;;;;;2.33;2.00;;;21.20;57.90;;;;;;5063298;28;20043;-45
2021/03/31 05:49:07;;;;;;;2.30;2.10;;;21.20;57.90;;;;;;5044781;28;20045;-43
2021/03/31 05:51:33;;;;;;;2.03;1.92;;;21.30;57.80;;;;;;5062895;28;20450;-45
2021/03/31 05:53:58;;;;;;;2.45;2.35;;;21.20;57.70;;;;;;5068046;28;20037;-45
2021/03/31 05:56:24;;;;;;;1.95;1.75;;;21.20;57.70;;;;;;5064517;28;20020;-44
2021/03/31 05:58:49;;;;;;;2.05;1.90;;;21.30;57.60;;;;;;5067533;28;20032;-44
2021/03/31 06:01:15;;;;;;;2.33;2.10;;;21.30;57.80;;;;;;5058998;28;20087;-44
2021/03/31 06:03:41;;;;;;;2.17;2.08;;;21.30;57.50;;;;;;5082187;28;20082;-44
2021/03/31 06:06:06;;;;;;;2.50;2.10;;;21.30;57.50;;;;;;5085580;28;20024;-44
2021/03/31 06:08:32;;;;;;;2.13;1.80;;;21.20;57.60;;;;;;5097822;28;20119;-45
2021/03/31 06:10:59;;;;;;;2.13;2.00;;;21.20;57.60;;;;;;5069648;28;20020;-44
2021/03/31 06:13:24;;;;;;;2.20;1.80;;;21.20;57.50;;;;;;5067522;28;20493;-46
2021/03/31 06:15:50;;;;;;;2.65;2.47;;;21.10;58.00;;;;;;5069713;28;20036;-45
2021/03/31 06:18:19;;;;;;;2.60;2.38;;;21.00;58.30;;;;;;5067870;28;20483;-45
2021/03/31 06:20:51;;;;;;;2.35;2.20;;;20.90;58.10;;;;;;5064972;28;20028;-48
2021/03/31 06:26:26;;;;;;;1.80;1.70;;;21.00;58.30;;;;;;5068218;28;20020;-47
2021/03/31 06:29:03;;;;;;;2.10;1.90;;;21.00;58.50;;;;;;5060801;28;20039;-44
2021/03/31 06:31:30;;;;;;;3.47;1.90;;;21.00;58.60;;;;;;5068450;28;20570;-43
2021/03/31 06:34:00;;;;;;;2.10;2.00;;;21.00;58.80;;;;;;5068743;28;20495;-47
2021/03/31 06:36:34;;;;;;;4.55;2.00;;;20.90;59.00;;;;;;5061150;28;20498;-44
2021/03/31 06:38:59;;;;;;;4.60;2.05;;;20.90;58.90;;;;;;5062843;28;20414;-43
2021/03/31 06:41:29;;;;;;;2.50;2.30;;;20.90;58.80;;;;;;5057550;28;20117;-44
2021/03/31 06:44:22;;;;;;;2.45;2.33;;;20.90;59.20;;;;;;5064013;28;20028;-39
2021/03/31 06:49:13;;;;;;;2.20;1.95;;;20.90;59.70;;;;;;5070546;28;20032;-40
2021/03/31 06:51:39;;;;;;;3.13;2.28;;;20.80;59.90;;;;;;5069343;28;20089;-40
2021/03/31 06:54:18;;;;;;;2.10;1.90;;;20.70;59.90;;;;;;5059314;28;20043;-39
2021/03/31 06:56:44;;;;;;;2.50;2.30;;;20.70;60.20;;;;;;5058082;28;20092;-39
2021/03/31 06:59:10;;;;;;;3.72;2.28;;;20.70;60.20;;;;;;5057136;28;20082;-47
2021/03/31 07:01:36;;;;;;;1.95;1.85;;;20.70;59.90;;;;;;5054936;28;20048;-48
2021/03/31 07:04:05;;;;;;;3.13;2.05;;;20.70;60.00;;;;;;5063988;28;20086;-45
2021/03/31 07:06:31;;;;;;;3.00;2.30;;;20.80;60.80;;;;;;5067635;28;20401;-45
2021/03/31 07:08:57;;;;;;;2.92;2.33;;;20.70;60.60;;;;;;5066195;28;20514;-43
2021/03/31 07:11:41;;;;;;;2.20;2.03;;;20.70;60.80;;;;;;5068706;28;20074;-43
2021/03/31 07:14:10;;;;;;;2.50;2.15;;;20.80;61.00;;;;;;5063445;28;20028;-43
2021/03/31 07:16:36;;;;;;;2.25;2.15;;;20.80;61.80;;;;;;5065877;28;20041;-50
2021/03/31 07:19:02;;;;;;;2.03;1.92;;;20.80;61.70;;;;;;5067560;28;20094;-44
2021/03/31 07:21:28;;;;;;;4.60;2.30;;;20.80;60.90;;;;;;5066358;28;20068;-44
2021/03/31 07:23:53;;;;;;;1.88;1.70;;;20.80;60.60;;;;;;5067350;28;20565;-42
2021/03/31 07:26:20;;;;;;;2.30;2.10;;;20.80;60.60;;;;;;5067218;28;20025;-48
2021/03/31 07:28:46;;;;;;;5.70;3.22;;;20.80;60.80;;;;;;5066958;28;20094;-43
2021/03/31 07:31:15;;;;;;;4.43;2.40;;;20.80;63.90;;;;;;5067893;28;20060;-46
2021/03/31 07:33:43;;;;;;;3.28;3.03;;;20.80;62.00;;;;;;5069597;28;20374;-49
2021/03/31 07:36:10;;;;;;;4.10;2.47;;;20.80;62.80;;;;;;5051143;28;20035;-40
2021/03/31 07:38:35;;;;;;;2.60;1.98;;;20.90;61.60;;;;;;5068098;28;20079;-40
2021/03/31 07:41:01;;;;;;;2.50;2.30;;;20.90;61.40;;;;;;5068081;28;20056;-39
2021/03/31 07:43:37;;;;;;;2.70;1.95;;;20.90;61.30;;;;;;5071250;28;20490;-38
2021/03/31 07:46:11;;;;;;;2.75;2.00;;;20.90;61.20;;;;;;5078563;28;20025;-40
2021/03/31 07:48:37;;;;;;;2.30;1.90;;;20.90;61.10;;;;;;5068751;28;20314;-40
2021/03/31 07:51:18;;;;;;;2.42;2.22;;;21.00;61.20;;;;;;5067962;28;20437;-39
2021/03/31 07:53:49;;;;;;;2.15;2.00;;;21.00;61.00;;;;;;5067794;28;20033;-38
2021/03/31 07:56:27;;;;;;;2.60;2.28;;;21.00;60.90;;;;;;5067604;28;20064;-39
2021/03/31 07:59:07;;;;;;;2.63;1.98;;;21.00;61.20;;;;;;5063845;28;20501;-39
2021/03/31 08:01:35;;;;;;;2.15;2.00;;;21.00;60.80;;;;;;5064396;28;20036;-39
2021/03/31 08:04:02;;;;;;;2.60;2.40;;;21.00;61.90;;;;;;5068919;28;20048;-38
2021/03/31 08:06:30;;;;;;;2.35;2.00;;;21.10;60.90;;;;;;5067534;28;20039;-40
2021/03/31 08:09:03;;;;;;;2.13;2.03;;;21.20;60.10;;;;;;5064225;28;20043;-38
2021/03/31 08:11:41;;;;;;;2.10;1.98;;;21.20;60.00;;;;;;5067385;28;20021;-38
2021/03/31 08:14:13;;;;;;;2.10;2.00;;;21.30;60.00;;;;;;5065911;28;20494;-39
2021/03/31 08:16:49;;;;;;;2.45;2.20;;;21.30;59.70;;;;;;5066809;28;20094;-37
2021/03/31 08:19:20;;;;;;;2.83;2.05;;;21.30;59.90;;;;;;5066832;28;20032;-38
2021/03/31 08:21:47;;;;;;;2.20;2.08;;;21.30;59.70;;;;;;5068973;28;20013;-38
2021/03/31 08:24:13;;;;;;;2.22;2.05;;;21.30;59.60;;;;;;5067400;28;20499;-39
2021/03/31 08:26:41;;;;;;;3.00;2.47;;;21.20;59.50;;;;;;5066590;28;20020;-38
2021/03/31 08:29:30;;;;;;;3.25;2.22;;;21.30;59.70;;;;;;5066902;28;20040;-35
2021/03/31 08:31:57;;;;;;;3.35;2.10;;;21.30;59.40;;;;;;5025166;28;20543;-36
2021/03/31 08:34:23;;;;;;;2.03;1.92;;;21.30;59.30;;;;;;5027059;28;20037;-43
2021/03/31 08:36:49;;;;;;;2.30;1.98;;;21.30;59.40;;;;;;5028307;28;20045;-42
2021/03/31 08:39:14;;;;;;;2.22;2.10;;;21.40;59.00;;;;;;5013748;28;20376;-42
2021/03/31 08:41:45;;;;;;;4.13;2.40;;;21.40;58.90;;;;;;5030369;28;20040;-43
2021/03/31 08:44:14;;;;;;;2.60;2.40;;;21.50;58.80;;;;;;5025011;28;20052;-42
2021/03/31 08:46:40;;;;;;;3.00;2.38;;;21.50;58.70;;;;;;5029943;28;20476;-43
2021/03/31 08:49:06;;;;;;;3.03;2.22;;;21.50;58.80;;;;;;5030475;28;20052;-44
2021/03/31 08:51:32;;;;;;;2.33;2.22;;;21.60;58.60;;;;;;5031219;28;20032;-43
2021/03/31 08:54:01;;;;;;;2.53;2.20;;;21.60;59.00;;;;;;5029380;28;20037;-45
2021/03/31 08:56:27;;;;;;;2.58;2.38;;;21.60;58.30;;;;;;5029420;28;20519;-44
2021/03/31 08:58:55;;;;;;;3.35;2.63;;;21.60;58.30;;;;;;5029405;28;20057;-43
2021/03/31 09:01:31;;;;;;;3.03;2.72;;;21.60;58.30;;;;;;5030085;28;20033;-40
2021/03/31 09:04:22;;;;;;;3.75;3.10;;;21.70;58.70;;;;;;4679135;28;9999831;-42
2021/03/31 09:06:48;;;;;;;3.33;3.05;;;21.80;57.30;;;;;;5025851;28;20112;-38
2021/03/31 09:09:14;;;;;;;4.65;3.90;;;21.80;57.50;;;;;;5050627;28;20124;-40
2021/03/31 09:11:39;;;;;;;3.63;3.33;;;21.80;57.30;;;;;;5068549;28;20027;-43
2021/03/31 09:14:21;;;;;;;4.85;3.50;;;21.90;57.70;;;;;;5068938;28;20028;-43
2021/03/31 09:16:55;;;;;;;2.97;2.83;;;21.90;57.50;;;;;;5070085;28;20412;-38
2021/03/31 09:19:21;;;;;;;3.95;3.03;;;21.90;57.80;;;;;;5063602;28;20408;-43
2021/03/31 09:21:46;;;;;;;3.22;3.03;;;21.90;57.70;;;;;;5064945;28;20285;-43
2021/03/31 09:24:19;;;;;;;3.42;3.13;;;21.80;58.00;;;;;;5066668;28;20031;-44
2021/03/31 09:27:01;;;;;;;3.28;3.08;;;21.70;58.20;;;;;;5064578;28;20067;-47
2021/03/31 09:29:26;;;;;;;3.65;3.35;;;21.50;58.70;;;;;;5069168;28;20548;-46
2021/03/31 09:31:52;;;;;;;3.10;2.90;;;21.50;59.20;;;;;;5061028;28;20020;-47
2021/03/31 09:34:18;;;;;;;3.45;3.25;;;21.40;59.00;;;;;;5068940;28;20024;-52
2021/03/31 09:37:03;;;;;;;4.07;3.17;;;21.40;59.60;;;;;;5071111;28;20487;-50
2021/03/31 09:39:47;;;;;;;3.63;3.20;;;21.50;59.10;;;;;;5069680;28;20032;-47
2021/03/31 09:42:19;;;;;;;5.10;3.77;;;21.60;58.80;;;;;;5068562;28;20490;-46
2021/03/31 09:44:45;;;;;;;2.92;2.67;;;21.70;58.60;;;;;;5097951;28;20119;-40
2021/03/31 09:47:11;;;;;;;3.88;3.47;;;21.70;58.60;;;;;;5069896;28;20024;-40
2021/03/31 09:49:37;;;;;;;3.28;3.00;;;21.80;58.40;;;;;;5067883;28;20445;-41
2021/03/31 09:52:04;;;;;;;3.55;3.30;;;21.80;58.40;;;;;;5070352;28;20394;-37
2021/03/31 09:54:29;;;;;;;3.72;3.35;;;21.80;58.50;;;;;;5070500;28;20520;-39
2021/03/31 09:56:56;;;;;;;3.17;2.97;;;21.70;58.80;;;;;;5096659;28;20025;-37
2021/03/31 09:59:21;;;;;;;3.70;3.40;;;21.80;58.60;;;;;;5052856;28;20032;-39
2021/03/31 10:01:48;;;;;;;4.72;3.10;;;21.70;59.10;;;;;;5068526;28;20091;-48
2021/03/31 10:04:14;;;;;;;3.65;3.30;;;21.70;58.40;;;;;;5053898;28;20033;-46
2021/03/31 10:06:41;;;;;;;4.50;2.67;;;21.60;58.60;;;;;;5059128;28;20024;-48
2021/03/31 10:09:18;;;;;;;3.30;3.05;;;21.50;59.20;;;;;;5065241;28;20040;-49
2021/03/31 10:11:45;;;;;;;3.30;3.10;;;21.30;59.40;;;;;;5062523;28;20112;-47
2021/03/31 10:14:21;;;;;;;3.35;3.00;;;21.40;59.50;;;;;;5057305;28;20028;-46
2021/03/31 10:16:46;;;;;;;2.85;2.65;;;21.40;59.40;;;;;;5054220;28;20047;-49
2021/03/31 10:19:12;;;;;;;3.00;2.80;;;21.40;59.40;;;;;;5067371;28;20107;-47
2021/03/31 10:21:38;;;;;;;2.92;2.63;;;21.50;59.30;;;;;;5072003;28;20021;-46
2021/03/31 10:24:04;;;;;;;3.10;2.80;;;21.50;59.30;;;;;;5061784;28;20047;-39
2021/03/31 10:26:31;;;;;;;3.50;3.20;;;21.50;59.20;;;;;;5064100;28;20407;-42
2021/03/31 10:29:04;;;;;;;3.88;3.15;;;21.50;59.20;;;;;;5066557;28;20043;-42
2021/03/31 10:31:44;;;;;;;3.28;2.65;;;21.50;59.10;;;;;;5057259;28;20029;-38
2021/03/31 10:34:10;;;;;;;2.78;2.58;;;21.60;59.00;;;;;;5066464;28;20028;-38
2021/03/31 10:37:15;;;;;;;3.38;2.63;;;21.60;59.10;;;;;;5066480;28;20608;-48
2021/03/31 10:48:29;;;;;;;4.93;2.85;;;21.70;58.60;;;;;;5067512;28;20055;-45
2021/03/31 10:53:47;;;;;;;2.72;2.53;;;21.70;58.00;;;;;;5059190;28;20037;-44
2021/03/31 10:56:12;;;;;;;4.03;2.85;;;21.80;57.80;;;;;;5057271;28;20445;-44
2021/03/31 10:58:41;;;;;;;2.90;2.70;;;21.80;57.90;;;;;;5053655;28;20127;-38
2021/03/31 11:01:07;;;;;;;2.53;2.40;;;21.90;58.40;;;;;;4697040;28;9999814;-39
2021/03/31 11:03:33;;;;;;;2.70;2.50;;;21.90;57.60;;;;;;5059216;28;20035;-38
2021/03/31 11:05:59;;;;;;;4.07;3.08;;;21.90;57.70;;;;;;5060652;28;20761;-37
2021/03/31 11:08:24;;;;;;;3.92;3.58;;;21.90;57.70;;;;;;5062149;28;20040;-40
2021/03/31 11:10:50;;;;;;;4.10;3.35;;;21.90;57.90;;;;;;5050133;28;20045;-35
2021/03/31 11:13:16;;;;;;;5.53;3.85;;;22.00;57.70;;;;;;5060063;28;20042;-35
2021/03/31 11:15:42;;;;;;;5.53;3.20;;;21.90;57.60;;;;;;5047545;28;20037;-39
2021/03/31 11:18:16;;;;;;;3.42;3.20;;;21.90;57.60;;;;;;5054261;28;20051;-40
2021/03/31 11:21:04;;;;;;;4.07;3.70;;;22.00;57.60;;;;;;5038244;28;20029;-39
2021/03/31 11:26:13;;;;;;;5.18;3.15;;;22.00;57.20;;;;;;5056951;28;20393;-39
2021/03/31 11:28:39;;;;;;;6.38;3.30;;;22.00;56.90;;;;;;5054258;28;20506;-39
2021/03/31 11:31:05;;;;;;;4.18;3.20;;;22.00;57.00;;;;;;5063292;28;20391;-39
2021/03/31 11:33:31;;;;;;;3.90;3.28;;;22.00;57.60;;;;;;5067504;28;20504;-39
2021/03/31 11:35:56;;;;;;;4.18;3.00;;;22.00;57.90;;;;;;5066248;28;20561;-39
2021/03/31 11:38:23;;;;;;;3.42;2.75;;;22.00;57.10;;;;;;5067821;28;20121;-39
2021/03/31 11:40:49;;;;;;;4.07;2.70;;;22.00;57.00;;;;;;5067029;28;20036;-38
2021/03/31 11:43:15;;;;;;;3.30;2.70;;;22.00;56.90;;;;;;5067838;28;20507;-38
2021/03/31 11:45:41;;;;;;;5.72;2.85;;;21.90;57.00;;;;;;5068900;28;20526;-39
2021/03/31 11:48:07;;;;;;;6.18;3.10;;;21.90;56.90;;;;;;5066459;28;20128;-39
2021/03/31 11:50:33;;;;;;;3.28;3.00;;;21.90;57.00;;;;;;5066267;28;20040;-39
2021/03/31 11:52:58;;;;;;;4.18;2.80;;;21.90;57.00;;;;;;5065988;28;20029;-38
2021/03/31 11:55:24;;;;;;;3.78;2.80;;;21.90;57.00;;;;;;5068288;28;20025;-38
2021/03/31 11:57:49;;;;;;;3.08;2.80;;;21.90;56.90;;;;;;5067473;28;20070;-37
2021/03/31 12:00:15;;;;;;;3.20;3.00;;;21.90;57.40;;;;;;5066515;28;20039;-39
2021/03/31 12:02:41;;;;;;;3.67;2.85;;;21.90;57.00;;;;;;5067628;28;20056;-39
2021/03/31 12:05:07;;;;;;;3.75;2.70;;;22.00;57.00;;;;;;5066431;28;20032;-38
2021/03/31 12:07:32;;;;;;;5.53;2.67;;;22.00;57.10;;;;;;5066669;28;20032;-37
2021/03/31 12:09:58;;;;;;;2.85;2.60;;;22.00;57.50;;;;;;5068789;28;20579;-38
2021/03/31 12:12:23;;;;;;;4.45;2.75;;;22.00;56.90;;;;;;5069295;28;20029;-37
2021/03/31 12:14:49;;;;;;;3.25;2.30;;;21.90;56.90;;;;;;5071143;28;20785;-42
2021/03/31 12:17:16;;;;;;;5.10;2.58;;;21.90;56.80;;;;;;5063979;28;20403;-38
2021/03/31 12:19:42;;;;;;;2.97;2.70;;;22.00;56.80;;;;;;5067820;28;20020;-39
2021/03/31 12:22:08;;;;;;;2.40;2.20;;;22.10;56.40;;;;;;5066729;28;20037;-39
2021/03/31 12:24:33;;;;;;;3.15;2.58;;;22.20;56.10;;;;;;5070080;28;20127;-38
2021/03/31 12:27:08;;;;;;;3.25;2.95;;;22.20;56.00;;;;;;5067352;28;20536;-39
2021/03/31 12:29:34;;;;;;;2.63;2.42;;;22.30;56.00;;;;;;5070438;28;20024;-40
2021/03/31 12:31:59;;;;;;;3.53;2.22;;;22.20;56.00;;;;;;5068383;28;20426;-39
2021/03/31 12:34:28;;;;;;;5.72;3.20;;;22.30;55.90;;;;;;5069576;28;20033;-40
2021/03/31 12:36:53;;;;;;;3.83;2.28;;;22.30;56.30;;;;;;5070235;28;20020;-40
2021/03/31 12:39:19;;;;;;;5.43;2.55;;;22.30;56.80;;;;;;5068759;28;20517;-40
2021/03/31 12:41:45;;;;;;;3.58;2.15;;;22.30;56.40;;;;;;5070326;28;20033;-47
2021/03/31 12:44:10;;;;;;;5.70;2.63;;;22.30;56.50;;;;;;5068102;28;20048;-46
2021/03/31 12:46:36;;;;;;;3.03;2.78;;;22.20;56.90;;;;;;5066897;28;20029;-50
2021/03/31 12:49:01;;;;;;;2.75;2.45;;;22.10;57.00;;;;;;5070970;28;20148;-46
2021/03/31 12:54:12;;;;;;;4.75;2.22;;;22.10;57.60;;;;;;5069400;28;20025;-49
2021/03/31 12:56:38;;;;;;;5.25;2.30;;;22.00;57.20;;;;;;5069590;28;20051;-50
2021/03/31 12:59:03;;;;;;;2.97;2.10;;;22.00;57.10;;;;;;5069090;28;20478;-51
2021/03/31 13:01:29;;;;;;;3.13;2.20;;;22.00;56.60;;;;;;5067054;28;20043;-50
2021/03/31 13:03:55;;;;;;;3.80;2.35;;;22.00;56.90;;;;;;5068336;28;20029;-48
2021/03/31 13:06:23;;;;;;;3.10;2.58;;;22.00;56.60;;;;;;5066782;28;20016;-48
2021/03/31 13:08:52;;;;;;;3.03;2.63;;;22.00;56.60;;;;;;5069874;28;20044;-49
2021/03/31 13:11:19;;;;;;;3.25;2.42;;;22.00;57.20;;;;;;5069022;28;20645;-48
2021/03/31 13:14:03;;;;;;;5.22;2.80;;;22.10;56.90;;;;;;5068558;28;20104;-43
2021/03/31 13:30:22;;;;;;;2.58;2.20;;;22.30;56.70;;;;;;5069177;28;20445;-48